<?xml version="1.0" encoding="UTF-8" standalone="no" ?>
<gpx xmlns="http://www.topografix.com/GPX/1/1" xmlns:xsi="http://www.w3.org/2001/XMLSchema-instance" xsi:schemaLocation="http://www.topografix.com/GPX/1/1 http://www.topografix.com/GPX/1/1/gpx.xsd" version="1.1" creator="VisuGPX - https://www.visugpx.com">
  <metadata>
    <name>12549389-Chaussan_14km</name>
  </metadata>
  <trk>
    <name><![CDATA[12549389-Chaussan_14km]]></name>
    <trkseg>
      <trkpt lat="45.63317" lon="4.63898">
        <ele>472</ele>
        <time>2021-02-15T17:19:05Z</time>
      </trkpt>
      <trkpt lat="45.63309" lon="4.63879">
        <ele>470</ele>
        <time>2021-02-15T17:19:26Z</time>
      </trkpt>
      <trkpt lat="45.63305" lon="4.63847">
        <ele>469</ele>
        <time>2021-02-15T17:19:56Z</time>
      </trkpt>
      <trkpt lat="45.63298" lon="4.63811">
        <ele>467</ele>
        <time>2021-02-15T17:20:31Z</time>
      </trkpt>
      <trkpt lat="45.6329" lon="4.6378">
        <ele>466</ele>
        <time>2021-02-15T17:21:02Z</time>
      </trkpt>
      <trkpt lat="45.63282" lon="4.63759">
        <ele>465</ele>
        <time>2021-02-15T17:21:24Z</time>
      </trkpt>
      <trkpt lat="45.63278" lon="4.63755">
        <ele>465</ele>
        <time>2021-02-15T17:21:31Z</time>
      </trkpt>
      <trkpt lat="45.63272" lon="4.63748">
        <ele>464</ele>
        <time>2021-02-15T17:21:41Z</time>
      </trkpt>
      <trkpt lat="45.63269" lon="4.63745">
        <ele>464</ele>
        <time>2021-02-15T17:21:46Z</time>
      </trkpt>
      <trkpt lat="45.63257" lon="4.63744">
        <ele>463</ele>
        <time>2021-02-15T17:22:02Z</time>
      </trkpt>
      <trkpt lat="45.63246" lon="4.63747">
        <ele>462</ele>
        <time>2021-02-15T17:22:17Z</time>
      </trkpt>
      <trkpt lat="45.63237" lon="4.63752">
        <ele>462</ele>
        <time>2021-02-15T17:22:30Z</time>
      </trkpt>
      <trkpt lat="45.63224" lon="4.63745">
        <ele>461</ele>
        <time>2021-02-15T17:22:48Z</time>
      </trkpt>
      <trkpt lat="45.63215" lon="4.63728">
        <ele>462</ele>
        <time>2021-02-15T17:23:08Z</time>
      </trkpt>
      <trkpt lat="45.63206" lon="4.63716">
        <ele>463</ele>
        <time>2021-02-15T17:23:25Z</time>
      </trkpt>
      <trkpt lat="45.63191" lon="4.63678">
        <ele>465</ele>
        <time>2021-02-15T17:24:05Z</time>
      </trkpt>
      <trkpt lat="45.63153" lon="4.63523">
        <ele>472</ele>
        <time>2021-02-15T17:26:38Z</time>
      </trkpt>
      <trkpt lat="45.63146" lon="4.63434">
        <ele>477</ele>
        <time>2021-02-15T17:28:02Z</time>
      </trkpt>
      <trkpt lat="45.63121" lon="4.63328">
        <ele>484</ele>
        <time>2021-02-15T17:29:46Z</time>
      </trkpt>
      <trkpt lat="45.63109" lon="4.63295">
        <ele>485</ele>
        <time>2021-02-15T17:30:21Z</time>
      </trkpt>
      <trkpt lat="45.63099" lon="4.6328">
        <ele>486</ele>
        <time>2021-02-15T17:30:41Z</time>
      </trkpt>
      <trkpt lat="45.63068" lon="4.63224">
        <ele>484</ele>
        <time>2021-02-15T17:31:47Z</time>
      </trkpt>
      <trkpt lat="45.63059" lon="4.63188">
        <ele>483</ele>
        <time>2021-02-15T17:32:23Z</time>
      </trkpt>
      <trkpt lat="45.63059" lon="4.63152">
        <ele>481</ele>
        <time>2021-02-15T17:32:56Z</time>
      </trkpt>
      <trkpt lat="45.63069" lon="4.63108">
        <ele>479</ele>
        <time>2021-02-15T17:33:40Z</time>
      </trkpt>
      <trkpt lat="45.63103" lon="4.63024">
        <ele>480</ele>
        <time>2021-02-15T17:35:10Z</time>
      </trkpt>
      <trkpt lat="45.63105" lon="4.62982">
        <ele>479</ele>
        <time>2021-02-15T17:35:49Z</time>
      </trkpt>
      <trkpt lat="45.63093" lon="4.62914">
        <ele>477</ele>
        <time>2021-02-15T17:36:55Z</time>
      </trkpt>
      <trkpt lat="45.63089" lon="4.62884">
        <ele>478</ele>
        <time>2021-02-15T17:37:23Z</time>
      </trkpt>
      <trkpt lat="45.63088" lon="4.62845">
        <ele>480</ele>
        <time>2021-02-15T17:38:00Z</time>
      </trkpt>
      <trkpt lat="45.63095" lon="4.62804">
        <ele>485</ele>
        <time>2021-02-15T17:38:39Z</time>
      </trkpt>
      <trkpt lat="45.63095" lon="4.62777">
        <ele>487</ele>
        <time>2021-02-15T17:39:04Z</time>
      </trkpt>
      <trkpt lat="45.63087" lon="4.62743">
        <ele>489</ele>
        <time>2021-02-15T17:39:38Z</time>
      </trkpt>
      <trkpt lat="45.6308" lon="4.62724">
        <ele>489</ele>
        <time>2021-02-15T17:39:58Z</time>
      </trkpt>
      <trkpt lat="45.63076" lon="4.62698">
        <ele>491</ele>
        <time>2021-02-15T17:40:23Z</time>
      </trkpt>
      <trkpt lat="45.63076" lon="4.62664">
        <ele>492</ele>
        <time>2021-02-15T17:40:54Z</time>
      </trkpt>
      <trkpt lat="45.63081" lon="4.62622">
        <ele>494</ele>
        <time>2021-02-15T17:41:34Z</time>
      </trkpt>
      <trkpt lat="45.6309" lon="4.62587">
        <ele>496</ele>
        <time>2021-02-15T17:42:09Z</time>
      </trkpt>
      <trkpt lat="45.631" lon="4.62557">
        <ele>499</ele>
        <time>2021-02-15T17:42:40Z</time>
      </trkpt>
      <trkpt lat="45.63103" lon="4.62532">
        <ele>501</ele>
        <time>2021-02-15T17:43:04Z</time>
      </trkpt>
      <trkpt lat="45.63103" lon="4.62494">
        <ele>503</ele>
        <time>2021-02-15T17:43:39Z</time>
      </trkpt>
      <trkpt lat="45.63099" lon="4.62457">
        <ele>505</ele>
        <time>2021-02-15T17:44:14Z</time>
      </trkpt>
      <trkpt lat="45.63095" lon="4.62431">
        <ele>507</ele>
        <time>2021-02-15T17:44:39Z</time>
      </trkpt>
      <trkpt lat="45.63081" lon="4.62389">
        <ele>510</ele>
        <time>2021-02-15T17:45:22Z</time>
      </trkpt>
      <trkpt lat="45.63064" lon="4.62317">
        <ele>516</ele>
        <time>2021-02-15T17:46:33Z</time>
      </trkpt>
      <trkpt lat="45.63052" lon="4.62274">
        <ele>517</ele>
        <time>2021-02-15T17:47:16Z</time>
      </trkpt>
      <trkpt lat="45.63051" lon="4.62248">
        <ele>519</ele>
        <time>2021-02-15T17:47:41Z</time>
      </trkpt>
      <trkpt lat="45.63068" lon="4.62204">
        <ele>523</ele>
        <time>2021-02-15T17:48:28Z</time>
      </trkpt>
      <trkpt lat="45.63077" lon="4.62175">
        <ele>526</ele>
        <time>2021-02-15T17:48:57Z</time>
      </trkpt>
      <trkpt lat="45.6308" lon="4.62147">
        <ele>528</ele>
        <time>2021-02-15T17:49:24Z</time>
      </trkpt>
      <trkpt lat="45.63075" lon="4.62118">
        <ele>531</ele>
        <time>2021-02-15T17:49:52Z</time>
      </trkpt>
      <trkpt lat="45.63093" lon="4.62113">
        <ele>530</ele>
        <time>2021-02-15T17:50:16Z</time>
      </trkpt>
      <trkpt lat="45.63075" lon="4.62118">
        <ele>531</ele>
        <time>2021-02-15T17:50:41Z</time>
      </trkpt>
      <trkpt lat="45.63065" lon="4.62074">
        <ele>534</ele>
        <time>2021-02-15T17:51:24Z</time>
      </trkpt>
      <trkpt lat="45.63042" lon="4.62033">
        <ele>537</ele>
        <time>2021-02-15T17:52:13Z</time>
      </trkpt>
      <trkpt lat="45.63037" lon="4.62028">
        <ele>537</ele>
        <time>2021-02-15T17:52:21Z</time>
      </trkpt>
      <trkpt lat="45.63016" lon="4.61993">
        <ele>540</ele>
        <time>2021-02-15T17:53:04Z</time>
      </trkpt>
      <trkpt lat="45.6301" lon="4.6199">
        <ele>540</ele>
        <time>2021-02-15T17:53:12Z</time>
      </trkpt>
      <trkpt lat="45.63001" lon="4.61991">
        <ele>540</ele>
        <time>2021-02-15T17:53:24Z</time>
      </trkpt>
      <trkpt lat="45.62992" lon="4.62001">
        <ele>540</ele>
        <time>2021-02-15T17:53:40Z</time>
      </trkpt>
      <trkpt lat="45.6296" lon="4.62067">
        <ele>543</ele>
        <time>2021-02-15T17:54:55Z</time>
      </trkpt>
      <trkpt lat="45.62954" lon="4.62085">
        <ele>543</ele>
        <time>2021-02-15T17:55:13Z</time>
      </trkpt>
      <trkpt lat="45.62943" lon="4.62101">
        <ele>544</ele>
        <time>2021-02-15T17:55:34Z</time>
      </trkpt>
      <trkpt lat="45.62931" lon="4.6211">
        <ele>546</ele>
        <time>2021-02-15T17:55:52Z</time>
      </trkpt>
      <trkpt lat="45.62904" lon="4.62125">
        <ele>549</ele>
        <time>2021-02-15T17:56:31Z</time>
      </trkpt>
      <trkpt lat="45.62853" lon="4.6213">
        <ele>552</ele>
        <time>2021-02-15T17:57:39Z</time>
      </trkpt>
      <trkpt lat="45.62844" lon="4.62127">
        <ele>553</ele>
        <time>2021-02-15T17:57:51Z</time>
      </trkpt>
      <trkpt lat="45.62825" lon="4.62101">
        <ele>558</ele>
        <time>2021-02-15T17:58:27Z</time>
      </trkpt>
      <trkpt lat="45.62756" lon="4.62031">
        <ele>572</ele>
        <time>2021-02-15T18:00:19Z</time>
      </trkpt>
      <trkpt lat="45.62743" lon="4.62023">
        <ele>574</ele>
        <time>2021-02-15T18:00:38Z</time>
      </trkpt>
      <trkpt lat="45.62701" lon="4.62012">
        <ele>577</ele>
        <time>2021-02-15T18:01:35Z</time>
      </trkpt>
      <trkpt lat="45.62692" lon="4.62003">
        <ele>579</ele>
        <time>2021-02-15T18:01:50Z</time>
      </trkpt>
      <trkpt lat="45.62667" lon="4.61965">
        <ele>584</ele>
        <time>2021-02-15T18:02:39Z</time>
      </trkpt>
      <trkpt lat="45.62666" lon="4.61958">
        <ele>584</ele>
        <time>2021-02-15T18:02:45Z</time>
      </trkpt>
      <trkpt lat="45.62671" lon="4.61956">
        <ele>585</ele>
        <time>2021-02-15T18:02:52Z</time>
      </trkpt>
      <trkpt lat="45.62703" lon="4.61922">
        <ele>591</ele>
        <time>2021-02-15T18:03:45Z</time>
      </trkpt>
      <trkpt lat="45.62722" lon="4.61892">
        <ele>596</ele>
        <time>2021-02-15T18:04:23Z</time>
      </trkpt>
      <trkpt lat="45.62701" lon="4.61835">
        <ele>600</ele>
        <time>2021-02-15T18:05:23Z</time>
      </trkpt>
      <trkpt lat="45.62669" lon="4.61731">
        <ele>609</ele>
        <time>2021-02-15T18:07:09Z</time>
      </trkpt>
      <trkpt lat="45.62632" lon="4.61651">
        <ele>610</ele>
        <time>2021-02-15T18:08:39Z</time>
      </trkpt>
      <trkpt lat="45.62637" lon="4.61613">
        <ele>617</ele>
        <time>2021-02-15T18:09:15Z</time>
      </trkpt>
      <trkpt lat="45.62635" lon="4.61597">
        <ele>619</ele>
        <time>2021-02-15T18:09:30Z</time>
      </trkpt>
      <trkpt lat="45.62623" lon="4.61582">
        <ele>619</ele>
        <time>2021-02-15T18:09:51Z</time>
      </trkpt>
      <trkpt lat="45.62616" lon="4.61578">
        <ele>619</ele>
        <time>2021-02-15T18:10:01Z</time>
      </trkpt>
      <trkpt lat="45.62589" lon="4.6154">
        <ele>624</ele>
        <time>2021-02-15T18:10:52Z</time>
      </trkpt>
      <trkpt lat="45.62576" lon="4.61533">
        <ele>625</ele>
        <time>2021-02-15T18:11:11Z</time>
      </trkpt>
      <trkpt lat="45.62533" lon="4.61534">
        <ele>627</ele>
        <time>2021-02-15T18:12:08Z</time>
      </trkpt>
      <trkpt lat="45.62474" lon="4.61569">
        <ele>618</ele>
        <time>2021-02-15T18:13:33Z</time>
      </trkpt>
      <trkpt lat="45.62453" lon="4.61575">
        <ele>617</ele>
        <time>2021-02-15T18:14:02Z</time>
      </trkpt>
      <trkpt lat="45.62431" lon="4.61595">
        <ele>614</ele>
        <time>2021-02-15T18:14:37Z</time>
      </trkpt>
      <trkpt lat="45.62415" lon="4.61598">
        <ele>614</ele>
        <time>2021-02-15T18:14:58Z</time>
      </trkpt>
      <trkpt lat="45.62364" lon="4.61589">
        <ele>615</ele>
        <time>2021-02-15T18:16:07Z</time>
      </trkpt>
      <trkpt lat="45.62324" lon="4.6156">
        <ele>621</ele>
        <time>2021-02-15T18:17:07Z</time>
      </trkpt>
      <trkpt lat="45.6232" lon="4.61555">
        <ele>622</ele>
        <time>2021-02-15T18:17:14Z</time>
      </trkpt>
      <trkpt lat="45.62308" lon="4.61517">
        <ele>630</ele>
        <time>2021-02-15T18:17:53Z</time>
      </trkpt>
      <trkpt lat="45.62298" lon="4.615">
        <ele>633</ele>
        <time>2021-02-15T18:18:13Z</time>
      </trkpt>
      <trkpt lat="45.62287" lon="4.61488">
        <ele>635</ele>
        <time>2021-02-15T18:18:32Z</time>
      </trkpt>
      <trkpt lat="45.62281" lon="4.6147">
        <ele>638</ele>
        <time>2021-02-15T18:18:50Z</time>
      </trkpt>
      <trkpt lat="45.62261" lon="4.61441">
        <ele>642</ele>
        <time>2021-02-15T18:19:28Z</time>
      </trkpt>
      <trkpt lat="45.62239" lon="4.61419">
        <ele>645</ele>
        <time>2021-02-15T18:20:04Z</time>
      </trkpt>
      <trkpt lat="45.62216" lon="4.61408">
        <ele>645</ele>
        <time>2021-02-15T18:20:37Z</time>
      </trkpt>
      <trkpt lat="45.62202" lon="4.61398">
        <ele>645</ele>
        <time>2021-02-15T18:20:57Z</time>
      </trkpt>
      <trkpt lat="45.62187" lon="4.61378">
        <ele>648</ele>
        <time>2021-02-15T18:21:25Z</time>
      </trkpt>
      <trkpt lat="45.62177" lon="4.61357">
        <ele>651</ele>
        <time>2021-02-15T18:21:49Z</time>
      </trkpt>
      <trkpt lat="45.62154" lon="4.61343">
        <ele>651</ele>
        <time>2021-02-15T18:22:22Z</time>
      </trkpt>
      <trkpt lat="45.62058" lon="4.61249">
        <ele>670</ele>
        <time>2021-02-15T18:24:57Z</time>
      </trkpt>
      <trkpt lat="45.62007" lon="4.61173">
        <ele>679</ele>
        <time>2021-02-15T18:26:35Z</time>
      </trkpt>
      <trkpt lat="45.61999" lon="4.6115">
        <ele>680</ele>
        <time>2021-02-15T18:26:59Z</time>
      </trkpt>
      <trkpt lat="45.61997" lon="4.61133">
        <ele>681</ele>
        <time>2021-02-15T18:27:16Z</time>
      </trkpt>
      <trkpt lat="45.62009" lon="4.61045">
        <ele>690</ele>
        <time>2021-02-15T18:28:39Z</time>
      </trkpt>
      <trkpt lat="45.62024" lon="4.60982">
        <ele>698</ele>
        <time>2021-02-15T18:29:41Z</time>
      </trkpt>
      <trkpt lat="45.62051" lon="4.6091">
        <ele>717</ele>
        <time>2021-02-15T18:30:58Z</time>
      </trkpt>
      <trkpt lat="45.62047" lon="4.60891">
        <ele>720</ele>
        <time>2021-02-15T18:31:16Z</time>
      </trkpt>
      <trkpt lat="45.62019" lon="4.60885">
        <ele>715</ele>
        <time>2021-02-15T18:31:54Z</time>
      </trkpt>
      <trkpt lat="45.61968" lon="4.60895">
        <ele>708</ele>
        <time>2021-02-15T18:33:03Z</time>
      </trkpt>
      <trkpt lat="45.61953" lon="4.60893">
        <ele>709</ele>
        <time>2021-02-15T18:33:23Z</time>
      </trkpt>
      <trkpt lat="45.61882" lon="4.6086">
        <ele>727</ele>
        <time>2021-02-15T18:35:02Z</time>
      </trkpt>
      <trkpt lat="45.61818" lon="4.60862">
        <ele>730</ele>
        <time>2021-02-15T18:36:28Z</time>
      </trkpt>
      <trkpt lat="45.61809" lon="4.60858">
        <ele>731</ele>
        <time>2021-02-15T18:36:40Z</time>
      </trkpt>
      <trkpt lat="45.61779" lon="4.60813">
        <ele>742</ele>
        <time>2021-02-15T18:37:38Z</time>
      </trkpt>
      <trkpt lat="45.61777" lon="4.60798">
        <ele>746</ele>
        <time>2021-02-15T18:37:53Z</time>
      </trkpt>
      <trkpt lat="45.61783" lon="4.60762">
        <ele>756</ele>
        <time>2021-02-15T18:38:27Z</time>
      </trkpt>
      <trkpt lat="45.61775" lon="4.60754">
        <ele>757</ele>
        <time>2021-02-15T18:38:40Z</time>
      </trkpt>
      <trkpt lat="45.61737" lon="4.60748">
        <ele>756</ele>
        <time>2021-02-15T18:39:31Z</time>
      </trkpt>
      <trkpt lat="45.61707" lon="4.60763">
        <ele>750</ele>
        <time>2021-02-15T18:40:14Z</time>
      </trkpt>
      <trkpt lat="45.61683" lon="4.60768">
        <ele>747</ele>
        <time>2021-02-15T18:40:46Z</time>
      </trkpt>
      <trkpt lat="45.61644" lon="4.60758">
        <ele>744</ele>
        <time>2021-02-15T18:41:39Z</time>
      </trkpt>
      <trkpt lat="45.61575" lon="4.60672">
        <ele>751</ele>
        <time>2021-02-15T18:43:41Z</time>
      </trkpt>
      <trkpt lat="45.61511" lon="4.60618">
        <ele>751</ele>
        <time>2021-02-15T18:45:20Z</time>
      </trkpt>
      <trkpt lat="45.61475" lon="4.60576">
        <ele>759</ele>
        <time>2021-02-15T18:46:22Z</time>
      </trkpt>
      <trkpt lat="45.6143" lon="4.60584">
        <ele>754</ele>
        <time>2021-02-15T18:47:23Z</time>
      </trkpt>
      <trkpt lat="45.6136" lon="4.60577">
        <ele>748</ele>
        <time>2021-02-15T18:48:56Z</time>
      </trkpt>
      <trkpt lat="45.61345" lon="4.60569">
        <ele>748</ele>
        <time>2021-02-15T18:49:18Z</time>
      </trkpt>
      <trkpt lat="45.61321" lon="4.60544">
        <ele>746</ele>
        <time>2021-02-15T18:49:57Z</time>
      </trkpt>
      <trkpt lat="45.61295" lon="4.60504">
        <ele>743</ele>
        <time>2021-02-15T18:50:48Z</time>
      </trkpt>
      <trkpt lat="45.61287" lon="4.60461">
        <ele>742</ele>
        <time>2021-02-15T18:51:30Z</time>
      </trkpt>
      <trkpt lat="45.61285" lon="4.60393">
        <ele>746</ele>
        <time>2021-02-15T18:52:33Z</time>
      </trkpt>
      <trkpt lat="45.6128" lon="4.60373">
        <ele>747</ele>
        <time>2021-02-15T18:52:53Z</time>
      </trkpt>
      <trkpt lat="45.61256" lon="4.60349">
        <ele>742</ele>
        <time>2021-02-15T18:53:32Z</time>
      </trkpt>
      <trkpt lat="45.61206" lon="4.60275">
        <ele>740</ele>
        <time>2021-02-15T18:55:08Z</time>
      </trkpt>
      <trkpt lat="45.61188" lon="4.60211">
        <ele>744</ele>
        <time>2021-02-15T18:56:13Z</time>
      </trkpt>
      <trkpt lat="45.61175" lon="4.60106">
        <ele>754</ele>
        <time>2021-02-15T18:57:52Z</time>
      </trkpt>
      <trkpt lat="45.61175" lon="4.60081">
        <ele>757</ele>
        <time>2021-02-15T18:58:16Z</time>
      </trkpt>
      <trkpt lat="45.61169" lon="4.60061">
        <ele>759</ele>
        <time>2021-02-15T18:58:36Z</time>
      </trkpt>
      <trkpt lat="45.61097" lon="4.60025">
        <ele>759</ele>
        <time>2021-02-15T19:00:18Z</time>
      </trkpt>
      <trkpt lat="45.61046" lon="4.59972">
        <ele>757</ele>
        <time>2021-02-15T19:01:42Z</time>
      </trkpt>
      <trkpt lat="45.61021" lon="4.5993">
        <ele>756</ele>
        <time>2021-02-15T19:02:33Z</time>
      </trkpt>
      <trkpt lat="45.61013" lon="4.59905">
        <ele>755</ele>
        <time>2021-02-15T19:02:59Z</time>
      </trkpt>
      <trkpt lat="45.61012" lon="4.5988">
        <ele>755</ele>
        <time>2021-02-15T19:03:22Z</time>
      </trkpt>
      <trkpt lat="45.61018" lon="4.59851">
        <ele>757</ele>
        <time>2021-02-15T19:03:51Z</time>
      </trkpt>
      <trkpt lat="45.61017" lon="4.59841">
        <ele>757</ele>
        <time>2021-02-15T19:04:00Z</time>
      </trkpt>
      <trkpt lat="45.61026" lon="4.59813">
        <ele>760</ele>
        <time>2021-02-15T19:04:29Z</time>
      </trkpt>
      <trkpt lat="45.61027" lon="4.59794">
        <ele>762</ele>
        <time>2021-02-15T19:04:47Z</time>
      </trkpt>
      <trkpt lat="45.61022" lon="4.59779">
        <ele>763</ele>
        <time>2021-02-15T19:05:02Z</time>
      </trkpt>
      <trkpt lat="45.60992" lon="4.59771">
        <ele>761</ele>
        <time>2021-02-15T19:05:43Z</time>
      </trkpt>
      <trkpt lat="45.60979" lon="4.5976">
        <ele>761</ele>
        <time>2021-02-15T19:06:03Z</time>
      </trkpt>
      <trkpt lat="45.60956" lon="4.59699">
        <ele>764</ele>
        <time>2021-02-15T19:07:08Z</time>
      </trkpt>
      <trkpt lat="45.6094" lon="4.59659">
        <ele>767</ele>
        <time>2021-02-15T19:07:51Z</time>
      </trkpt>
      <trkpt lat="45.60929" lon="4.59628">
        <ele>767</ele>
        <time>2021-02-15T19:08:23Z</time>
      </trkpt>
      <trkpt lat="45.60904" lon="4.59605">
        <ele>766</ele>
        <time>2021-02-15T19:09:03Z</time>
      </trkpt>
      <trkpt lat="45.60892" lon="4.59586">
        <ele>765</ele>
        <time>2021-02-15T19:09:27Z</time>
      </trkpt>
      <trkpt lat="45.60877" lon="4.59554">
        <ele>764</ele>
        <time>2021-02-15T19:10:03Z</time>
      </trkpt>
      <trkpt lat="45.60871" lon="4.59526">
        <ele>763</ele>
        <time>2021-02-15T19:10:30Z</time>
      </trkpt>
      <trkpt lat="45.60866" lon="4.59483">
        <ele>763</ele>
        <time>2021-02-15T19:11:11Z</time>
      </trkpt>
      <trkpt lat="45.60867" lon="4.59441">
        <ele>763</ele>
        <time>2021-02-15T19:11:50Z</time>
      </trkpt>
      <trkpt lat="45.60881" lon="4.59369">
        <ele>766</ele>
        <time>2021-02-15T19:13:00Z</time>
      </trkpt>
      <trkpt lat="45.60899" lon="4.5916">
        <ele>771</ele>
        <time>2021-02-15T19:16:16Z</time>
      </trkpt>
      <trkpt lat="45.60887" lon="4.5912">
        <ele>771</ele>
        <time>2021-02-15T19:16:57Z</time>
      </trkpt>
      <trkpt lat="45.60871" lon="4.59074">
        <ele>770</ele>
        <time>2021-02-15T19:17:45Z</time>
      </trkpt>
      <trkpt lat="45.60853" lon="4.59032">
        <ele>768</ele>
        <time>2021-02-15T19:18:31Z</time>
      </trkpt>
      <trkpt lat="45.60858" lon="4.5903">
        <ele>769</ele>
        <time>2021-02-15T19:18:38Z</time>
      </trkpt>
      <trkpt lat="45.60853" lon="4.59032">
        <ele>768</ele>
        <time>2021-02-15T19:18:45Z</time>
      </trkpt>
      <trkpt lat="45.60828" lon="4.59001">
        <ele>766</ele>
        <time>2021-02-15T19:19:29Z</time>
      </trkpt>
      <trkpt lat="45.60804" lon="4.58994">
        <ele>765</ele>
        <time>2021-02-15T19:20:01Z</time>
      </trkpt>
      <trkpt lat="45.60828" lon="4.59001">
        <ele>766</ele>
        <time>2021-02-15T19:20:34Z</time>
      </trkpt>
      <trkpt lat="45.60853" lon="4.59032">
        <ele>768</ele>
        <time>2021-02-15T19:21:18Z</time>
      </trkpt>
      <trkpt lat="45.60879" lon="4.59023">
        <ele>771</ele>
        <time>2021-02-15T19:21:54Z</time>
      </trkpt>
      <trkpt lat="45.60897" lon="4.59025">
        <ele>773</ele>
        <time>2021-02-15T19:22:18Z</time>
      </trkpt>
      <trkpt lat="45.60953" lon="4.59041">
        <ele>779</ele>
        <time>2021-02-15T19:23:34Z</time>
      </trkpt>
      <trkpt lat="45.61032" lon="4.59055">
        <ele>789</ele>
        <time>2021-02-15T19:25:21Z</time>
      </trkpt>
      <trkpt lat="45.61046" lon="4.59063">
        <ele>790</ele>
        <time>2021-02-15T19:25:41Z</time>
      </trkpt>
      <trkpt lat="45.6109" lon="4.59104">
        <ele>796</ele>
        <time>2021-02-15T19:26:51Z</time>
      </trkpt>
      <trkpt lat="45.61121" lon="4.59122">
        <ele>803</ele>
        <time>2021-02-15T19:27:35Z</time>
      </trkpt>
      <trkpt lat="45.61146" lon="4.59144">
        <ele>809</ele>
        <time>2021-02-15T19:28:15Z</time>
      </trkpt>
      <trkpt lat="45.61167" lon="4.59169">
        <ele>814</ele>
        <time>2021-02-15T19:28:51Z</time>
      </trkpt>
      <trkpt lat="45.61197" lon="4.59208">
        <ele>819</ele>
        <time>2021-02-15T19:29:45Z</time>
      </trkpt>
      <trkpt lat="45.61229" lon="4.59241">
        <ele>825</ele>
        <time>2021-02-15T19:30:38Z</time>
      </trkpt>
      <trkpt lat="45.61245" lon="4.59246">
        <ele>828</ele>
        <time>2021-02-15T19:31:00Z</time>
      </trkpt>
      <trkpt lat="45.61261" lon="4.59246">
        <ele>831</ele>
        <time>2021-02-15T19:31:21Z</time>
      </trkpt>
      <trkpt lat="45.61386" lon="4.59292">
        <ele>842</ele>
        <time>2021-02-15T19:34:13Z</time>
      </trkpt>
      <trkpt lat="45.61433" lon="4.59306">
        <ele>845</ele>
        <time>2021-02-15T19:35:17Z</time>
      </trkpt>
      <trkpt lat="45.61534" lon="4.59317">
        <ele>853</ele>
        <time>2021-02-15T19:37:33Z</time>
      </trkpt>
      <trkpt lat="45.6158" lon="4.59327">
        <ele>857</ele>
        <time>2021-02-15T19:38:35Z</time>
      </trkpt>
      <trkpt lat="45.61678" lon="4.59335">
        <ele>858</ele>
        <time>2021-02-15T19:40:46Z</time>
      </trkpt>
      <trkpt lat="45.61749" lon="4.59353">
        <ele>857</ele>
        <time>2021-02-15T19:42:22Z</time>
      </trkpt>
      <trkpt lat="45.6181" lon="4.59361">
        <ele>858</ele>
        <time>2021-02-15T19:43:44Z</time>
      </trkpt>
      <trkpt lat="45.61885" lon="4.59351">
        <ele>862</ele>
        <time>2021-02-15T19:45:24Z</time>
      </trkpt>
      <trkpt lat="45.61929" lon="4.59353">
        <ele>865</ele>
        <time>2021-02-15T19:46:23Z</time>
      </trkpt>
      <trkpt lat="45.61984" lon="4.59333">
        <ele>867</ele>
        <time>2021-02-15T19:47:39Z</time>
      </trkpt>
      <trkpt lat="45.61995" lon="4.59332">
        <ele>868</ele>
        <time>2021-02-15T19:47:53Z</time>
      </trkpt>
      <trkpt lat="45.62023" lon="4.59342">
        <ele>867</ele>
        <time>2021-02-15T19:48:32Z</time>
      </trkpt>
      <trkpt lat="45.62053" lon="4.59357">
        <ele>865</ele>
        <time>2021-02-15T19:49:14Z</time>
      </trkpt>
      <trkpt lat="45.62078" lon="4.59379">
        <ele>864</ele>
        <time>2021-02-15T19:49:53Z</time>
      </trkpt>
      <trkpt lat="45.62099" lon="4.59401">
        <ele>863</ele>
        <time>2021-02-15T19:50:28Z</time>
      </trkpt>
      <trkpt lat="45.62121" lon="4.59431">
        <ele>861</ele>
        <time>2021-02-15T19:51:09Z</time>
      </trkpt>
      <trkpt lat="45.62185" lon="4.59499">
        <ele>853</ele>
        <time>2021-02-15T19:52:55Z</time>
      </trkpt>
      <trkpt lat="45.62201" lon="4.5953">
        <ele>849</ele>
        <time>2021-02-15T19:53:31Z</time>
      </trkpt>
      <trkpt lat="45.62209" lon="4.59561">
        <ele>847</ele>
        <time>2021-02-15T19:54:02Z</time>
      </trkpt>
      <trkpt lat="45.62218" lon="4.59608">
        <ele>844</ele>
        <time>2021-02-15T19:54:47Z</time>
      </trkpt>
      <trkpt lat="45.62223" lon="4.59654">
        <ele>841</ele>
        <time>2021-02-15T19:55:31Z</time>
      </trkpt>
      <trkpt lat="45.62221" lon="4.59719">
        <ele>841</ele>
        <time>2021-02-15T19:56:32Z</time>
      </trkpt>
      <trkpt lat="45.62227" lon="4.59733">
        <ele>840</ele>
        <time>2021-02-15T19:56:47Z</time>
      </trkpt>
      <trkpt lat="45.62283" lon="4.59819">
        <ele>832</ele>
        <time>2021-02-15T19:58:37Z</time>
      </trkpt>
      <trkpt lat="45.62345" lon="4.59927">
        <ele>827</ele>
        <time>2021-02-15T20:00:47Z</time>
      </trkpt>
      <trkpt lat="45.62382" lon="4.59964">
        <ele>823</ele>
        <time>2021-02-15T20:01:47Z</time>
      </trkpt>
      <trkpt lat="45.62431" lon="4.60024">
        <ele>823</ele>
        <time>2021-02-15T20:03:13Z</time>
      </trkpt>
      <trkpt lat="45.62452" lon="4.60038">
        <ele>825</ele>
        <time>2021-02-15T20:03:44Z</time>
      </trkpt>
      <trkpt lat="45.62473" lon="4.60043">
        <ele>826</ele>
        <time>2021-02-15T20:04:13Z</time>
      </trkpt>
      <trkpt lat="45.62487" lon="4.60042">
        <ele>827</ele>
        <time>2021-02-15T20:04:31Z</time>
      </trkpt>
      <trkpt lat="45.62523" lon="4.60027">
        <ele>826</ele>
        <time>2021-02-15T20:05:21Z</time>
      </trkpt>
      <trkpt lat="45.62545" lon="4.60014">
        <ele>825</ele>
        <time>2021-02-15T20:05:53Z</time>
      </trkpt>
      <trkpt lat="45.62563" lon="4.60011">
        <ele>825</ele>
        <time>2021-02-15T20:06:17Z</time>
      </trkpt>
      <trkpt lat="45.62571" lon="4.60005">
        <ele>824</ele>
        <time>2021-02-15T20:06:29Z</time>
      </trkpt>
      <trkpt lat="45.62603" lon="4.59994">
        <ele>823</ele>
        <time>2021-02-15T20:07:13Z</time>
      </trkpt>
      <trkpt lat="45.62642" lon="4.5999">
        <ele>823</ele>
        <time>2021-02-15T20:08:05Z</time>
      </trkpt>
      <trkpt lat="45.62862" lon="4.5999">
        <ele>835</ele>
        <time>2021-02-15T20:12:59Z</time>
      </trkpt>
      <trkpt lat="45.62906" lon="4.59993">
        <ele>838</ele>
        <time>2021-02-15T20:13:58Z</time>
      </trkpt>
      <trkpt lat="45.62926" lon="4.59998">
        <ele>840</ele>
        <time>2021-02-15T20:14:25Z</time>
      </trkpt>
      <trkpt lat="45.62934" lon="4.60003">
        <ele>841</ele>
        <time>2021-02-15T20:14:37Z</time>
      </trkpt>
      <trkpt lat="45.62953" lon="4.60027">
        <ele>843</ele>
        <time>2021-02-15T20:15:10Z</time>
      </trkpt>
      <trkpt lat="45.62955" lon="4.60039">
        <ele>843</ele>
        <time>2021-02-15T20:15:22Z</time>
      </trkpt>
      <trkpt lat="45.62962" lon="4.60039">
        <ele>844</ele>
        <time>2021-02-15T20:15:31Z</time>
      </trkpt>
      <trkpt lat="45.62981" lon="4.60035">
        <ele>845</ele>
        <time>2021-02-15T20:15:57Z</time>
      </trkpt>
      <trkpt lat="45.62984" lon="4.60029">
        <ele>845</ele>
        <time>2021-02-15T20:16:04Z</time>
      </trkpt>
      <trkpt lat="45.62988" lon="4.60015">
        <ele>846</ele>
        <time>2021-02-15T20:16:18Z</time>
      </trkpt>
      <trkpt lat="45.62984" lon="4.60029">
        <ele>845</ele>
        <time>2021-02-15T20:16:32Z</time>
      </trkpt>
      <trkpt lat="45.62981" lon="4.60035">
        <ele>845</ele>
        <time>2021-02-15T20:16:39Z</time>
      </trkpt>
      <trkpt lat="45.62993" lon="4.60052">
        <ele>846</ele>
        <time>2021-02-15T20:17:01Z</time>
      </trkpt>
      <trkpt lat="45.62993" lon="4.60057">
        <ele>846</ele>
        <time>2021-02-15T20:17:06Z</time>
      </trkpt>
      <trkpt lat="45.63012" lon="4.60057">
        <ele>849</ele>
        <time>2021-02-15T20:17:31Z</time>
      </trkpt>
      <trkpt lat="45.63012" lon="4.60062">
        <ele>849</ele>
        <time>2021-02-15T20:17:36Z</time>
      </trkpt>
      <trkpt lat="45.63015" lon="4.6009">
        <ele>848</ele>
        <time>2021-02-15T20:18:03Z</time>
      </trkpt>
      <trkpt lat="45.6303" lon="4.60082">
        <ele>851</ele>
        <time>2021-02-15T20:18:24Z</time>
      </trkpt>
      <trkpt lat="45.63047" lon="4.60095">
        <ele>853</ele>
        <time>2021-02-15T20:18:50Z</time>
      </trkpt>
      <trkpt lat="45.63058" lon="4.60091">
        <ele>855</ele>
        <time>2021-02-15T20:19:05Z</time>
      </trkpt>
      <trkpt lat="45.63062" lon="4.60096">
        <ele>855</ele>
        <time>2021-02-15T20:19:12Z</time>
      </trkpt>
      <trkpt lat="45.63067" lon="4.60105">
        <ele>855</ele>
        <time>2021-02-15T20:19:23Z</time>
      </trkpt>
      <trkpt lat="45.63105" lon="4.60205">
        <ele>849</ele>
        <time>2021-02-15T20:21:09Z</time>
      </trkpt>
      <trkpt lat="45.6311" lon="4.60225">
        <ele>847</ele>
        <time>2021-02-15T20:21:29Z</time>
      </trkpt>
      <trkpt lat="45.63114" lon="4.60259">
        <ele>843</ele>
        <time>2021-02-15T20:22:01Z</time>
      </trkpt>
      <trkpt lat="45.63138" lon="4.60313">
        <ele>841</ele>
        <time>2021-02-15T20:23:00Z</time>
      </trkpt>
      <trkpt lat="45.63167" lon="4.60346">
        <ele>846</ele>
        <time>2021-02-15T20:23:50Z</time>
      </trkpt>
      <trkpt lat="45.63211" lon="4.60407">
        <ele>841</ele>
        <time>2021-02-15T20:25:12Z</time>
      </trkpt>
      <trkpt lat="45.63272" lon="4.60448">
        <ele>843</ele>
        <time>2021-02-15T20:26:42Z</time>
      </trkpt>
      <trkpt lat="45.6329" lon="4.60456">
        <ele>844</ele>
        <time>2021-02-15T20:27:07Z</time>
      </trkpt>
      <trkpt lat="45.63308" lon="4.60472">
        <ele>843</ele>
        <time>2021-02-15T20:27:35Z</time>
      </trkpt>
      <trkpt lat="45.63313" lon="4.6048">
        <ele>841</ele>
        <time>2021-02-15T20:27:45Z</time>
      </trkpt>
      <trkpt lat="45.63338" lon="4.60502">
        <ele>838</ele>
        <time>2021-02-15T20:28:24Z</time>
      </trkpt>
      <trkpt lat="45.63353" lon="4.60507">
        <ele>836</ele>
        <time>2021-02-15T20:28:45Z</time>
      </trkpt>
      <trkpt lat="45.63371" lon="4.60507">
        <ele>835</ele>
        <time>2021-02-15T20:29:09Z</time>
      </trkpt>
      <trkpt lat="45.63384" lon="4.60502">
        <ele>836</ele>
        <time>2021-02-15T20:29:27Z</time>
      </trkpt>
      <trkpt lat="45.63398" lon="4.60486">
        <ele>838</ele>
        <time>2021-02-15T20:29:51Z</time>
      </trkpt>
      <trkpt lat="45.63411" lon="4.60456">
        <ele>843</ele>
        <time>2021-02-15T20:30:24Z</time>
      </trkpt>
      <trkpt lat="45.63429" lon="4.60433">
        <ele>844</ele>
        <time>2021-02-15T20:30:56Z</time>
      </trkpt>
      <trkpt lat="45.6345" lon="4.60416">
        <ele>843</ele>
        <time>2021-02-15T20:31:28Z</time>
      </trkpt>
      <trkpt lat="45.63508" lon="4.60407">
        <ele>833</ele>
        <time>2021-02-15T20:32:46Z</time>
      </trkpt>
      <trkpt lat="45.63527" lon="4.60399">
        <ele>830</ele>
        <time>2021-02-15T20:33:12Z</time>
      </trkpt>
      <trkpt lat="45.63582" lon="4.60349">
        <ele>828</ele>
        <time>2021-02-15T20:34:39Z</time>
      </trkpt>
      <trkpt lat="45.63639" lon="4.60313">
        <ele>824</ele>
        <time>2021-02-15T20:36:02Z</time>
      </trkpt>
      <trkpt lat="45.63694" lon="4.60256">
        <ele>826</ele>
        <time>2021-02-15T20:37:33Z</time>
      </trkpt>
      <trkpt lat="45.63722" lon="4.60222">
        <ele>827</ele>
        <time>2021-02-15T20:38:22Z</time>
      </trkpt>
      <trkpt lat="45.63781" lon="4.60178">
        <ele>824</ele>
        <time>2021-02-15T20:39:51Z</time>
      </trkpt>
      <trkpt lat="45.63795" lon="4.60156">
        <ele>823</ele>
        <time>2021-02-15T20:40:19Z</time>
      </trkpt>
      <trkpt lat="45.63799" lon="4.60146">
        <ele>823</ele>
        <time>2021-02-15T20:40:29Z</time>
      </trkpt>
      <trkpt lat="45.63795" lon="4.60156">
        <ele>823</ele>
        <time>2021-02-15T20:40:40Z</time>
      </trkpt>
      <trkpt lat="45.63808" lon="4.60153">
        <ele>821</ele>
        <time>2021-02-15T20:40:58Z</time>
      </trkpt>
      <trkpt lat="45.63817" lon="4.60162">
        <ele>819</ele>
        <time>2021-02-15T20:41:12Z</time>
      </trkpt>
      <trkpt lat="45.63836" lon="4.6022">
        <ele>810</ele>
        <time>2021-02-15T20:42:12Z</time>
      </trkpt>
      <trkpt lat="45.63849" lon="4.60252">
        <ele>806</ele>
        <time>2021-02-15T20:42:47Z</time>
      </trkpt>
      <trkpt lat="45.6389" lon="4.60297">
        <ele>798</ele>
        <time>2021-02-15T20:43:56Z</time>
      </trkpt>
      <trkpt lat="45.63923" lon="4.6033">
        <ele>796</ele>
        <time>2021-02-15T20:44:49Z</time>
      </trkpt>
      <trkpt lat="45.63933" lon="4.6035">
        <ele>794</ele>
        <time>2021-02-15T20:45:12Z</time>
      </trkpt>
      <trkpt lat="45.63945" lon="4.60368">
        <ele>792</ele>
        <time>2021-02-15T20:45:36Z</time>
      </trkpt>
      <trkpt lat="45.6397" lon="4.60383">
        <ele>791</ele>
        <time>2021-02-15T20:46:12Z</time>
      </trkpt>
      <trkpt lat="45.63994" lon="4.60402">
        <ele>790</ele>
        <time>2021-02-15T20:46:48Z</time>
      </trkpt>
      <trkpt lat="45.64013" lon="4.6041">
        <ele>789</ele>
        <time>2021-02-15T20:47:15Z</time>
      </trkpt>
      <trkpt lat="45.64045" lon="4.60442">
        <ele>783</ele>
        <time>2021-02-15T20:48:07Z</time>
      </trkpt>
      <trkpt lat="45.64056" lon="4.6046">
        <ele>781</ele>
        <time>2021-02-15T20:48:29Z</time>
      </trkpt>
      <trkpt lat="45.64064" lon="4.60485">
        <ele>778</ele>
        <time>2021-02-15T20:48:55Z</time>
      </trkpt>
      <trkpt lat="45.64061" lon="4.60506">
        <ele>775</ele>
        <time>2021-02-15T20:49:15Z</time>
      </trkpt>
      <trkpt lat="45.64047" lon="4.60517">
        <ele>772</ele>
        <time>2021-02-15T20:49:36Z</time>
      </trkpt>
      <trkpt lat="45.64026" lon="4.60525">
        <ele>768</ele>
        <time>2021-02-15T20:50:05Z</time>
      </trkpt>
      <trkpt lat="45.64" lon="4.60519">
        <ele>768</ele>
        <time>2021-02-15T20:50:40Z</time>
      </trkpt>
      <trkpt lat="45.63987" lon="4.60524">
        <ele>766</ele>
        <time>2021-02-15T20:50:58Z</time>
      </trkpt>
      <trkpt lat="45.63974" lon="4.60537">
        <ele>761</ele>
        <time>2021-02-15T20:51:19Z</time>
      </trkpt>
      <trkpt lat="45.63963" lon="4.60545">
        <ele>758</ele>
        <time>2021-02-15T20:51:36Z</time>
      </trkpt>
      <trkpt lat="45.63882" lon="4.60585">
        <ele>742</ele>
        <time>2021-02-15T20:53:30Z</time>
      </trkpt>
      <trkpt lat="45.63853" lon="4.60595">
        <ele>738</ele>
        <time>2021-02-15T20:54:10Z</time>
      </trkpt>
      <trkpt lat="45.63826" lon="4.60598">
        <ele>737</ele>
        <time>2021-02-15T20:54:46Z</time>
      </trkpt>
      <trkpt lat="45.63802" lon="4.60614">
        <ele>735</ele>
        <time>2021-02-15T20:55:22Z</time>
      </trkpt>
      <trkpt lat="45.63784" lon="4.60648">
        <ele>732</ele>
        <time>2021-02-15T20:56:01Z</time>
      </trkpt>
      <trkpt lat="45.63773" lon="4.60682">
        <ele>729</ele>
        <time>2021-02-15T20:56:36Z</time>
      </trkpt>
      <trkpt lat="45.63775" lon="4.60719">
        <ele>724</ele>
        <time>2021-02-15T20:57:11Z</time>
      </trkpt>
      <trkpt lat="45.63795" lon="4.60884">
        <ele>696</ele>
        <time>2021-02-15T20:59:47Z</time>
      </trkpt>
      <trkpt lat="45.63804" lon="4.60944">
        <ele>687</ele>
        <time>2021-02-15T21:00:44Z</time>
      </trkpt>
      <trkpt lat="45.63811" lon="4.60969">
        <ele>682</ele>
        <time>2021-02-15T21:01:10Z</time>
      </trkpt>
      <trkpt lat="45.63815" lon="4.61014">
        <ele>677</ele>
        <time>2021-02-15T21:01:52Z</time>
      </trkpt>
      <trkpt lat="45.63838" lon="4.61091">
        <ele>667</ele>
        <time>2021-02-15T21:03:10Z</time>
      </trkpt>
      <trkpt lat="45.6385" lon="4.61123">
        <ele>664</ele>
        <time>2021-02-15T21:03:44Z</time>
      </trkpt>
      <trkpt lat="45.63861" lon="4.61134">
        <ele>660</ele>
        <time>2021-02-15T21:04:02Z</time>
      </trkpt>
      <trkpt lat="45.63874" lon="4.61135">
        <ele>656</ele>
        <time>2021-02-15T21:04:19Z</time>
      </trkpt>
      <trkpt lat="45.63868" lon="4.61098">
        <ele>657</ele>
        <time>2021-02-15T21:04:55Z</time>
      </trkpt>
      <trkpt lat="45.63871" lon="4.61087">
        <ele>655</ele>
        <time>2021-02-15T21:05:06Z</time>
      </trkpt>
      <trkpt lat="45.63881" lon="4.61086">
        <ele>652</ele>
        <time>2021-02-15T21:05:19Z</time>
      </trkpt>
      <trkpt lat="45.6392" lon="4.61192">
        <ele>641</ele>
        <time>2021-02-15T21:07:11Z</time>
      </trkpt>
      <trkpt lat="45.63919" lon="4.61226">
        <ele>640</ele>
        <time>2021-02-15T21:07:42Z</time>
      </trkpt>
      <trkpt lat="45.6389" lon="4.61338">
        <ele>632</ele>
        <time>2021-02-15T21:09:34Z</time>
      </trkpt>
      <trkpt lat="45.63881" lon="4.61366">
        <ele>630</ele>
        <time>2021-02-15T21:10:03Z</time>
      </trkpt>
      <trkpt lat="45.63879" lon="4.61398">
        <ele>627</ele>
        <time>2021-02-15T21:10:33Z</time>
      </trkpt>
      <trkpt lat="45.63883" lon="4.61492">
        <ele>625</ele>
        <time>2021-02-15T21:12:01Z</time>
      </trkpt>
      <trkpt lat="45.63888" lon="4.61529">
        <ele>626</ele>
        <time>2021-02-15T21:12:36Z</time>
      </trkpt>
      <trkpt lat="45.63906" lon="4.61596">
        <ele>631</ele>
        <time>2021-02-15T21:13:43Z</time>
      </trkpt>
      <trkpt lat="45.63912" lon="4.61627">
        <ele>634</ele>
        <time>2021-02-15T21:14:13Z</time>
      </trkpt>
      <trkpt lat="45.63906" lon="4.61637">
        <ele>633</ele>
        <time>2021-02-15T21:14:25Z</time>
      </trkpt>
      <trkpt lat="45.63897" lon="4.61676">
        <ele>633</ele>
        <time>2021-02-15T21:15:03Z</time>
      </trkpt>
      <trkpt lat="45.63893" lon="4.61717">
        <ele>634</ele>
        <time>2021-02-15T21:15:42Z</time>
      </trkpt>
      <trkpt lat="45.63864" lon="4.61857">
        <ele>635</ele>
        <time>2021-02-15T21:17:58Z</time>
      </trkpt>
      <trkpt lat="45.63862" lon="4.6188">
        <ele>634</ele>
        <time>2021-02-15T21:18:20Z</time>
      </trkpt>
      <trkpt lat="45.63868" lon="4.619">
        <ele>634</ele>
        <time>2021-02-15T21:18:40Z</time>
      </trkpt>
      <trkpt lat="45.63881" lon="4.61925">
        <ele>635</ele>
        <time>2021-02-15T21:19:09Z</time>
      </trkpt>
      <trkpt lat="45.6389" lon="4.61956">
        <ele>633</ele>
        <time>2021-02-15T21:19:40Z</time>
      </trkpt>
      <trkpt lat="45.63895" lon="4.61981">
        <ele>632</ele>
        <time>2021-02-15T21:20:05Z</time>
      </trkpt>
      <trkpt lat="45.63894" lon="4.62004">
        <ele>630</ele>
        <time>2021-02-15T21:20:26Z</time>
      </trkpt>
      <trkpt lat="45.63876" lon="4.62043">
        <ele>631</ele>
        <time>2021-02-15T21:21:10Z</time>
      </trkpt>
      <trkpt lat="45.63847" lon="4.62089">
        <ele>629</ele>
        <time>2021-02-15T21:22:08Z</time>
      </trkpt>
      <trkpt lat="45.63813" lon="4.62137">
        <ele>625</ele>
        <time>2021-02-15T21:23:11Z</time>
      </trkpt>
      <trkpt lat="45.63787" lon="4.62198">
        <ele>625</ele>
        <time>2021-02-15T21:24:18Z</time>
      </trkpt>
      <trkpt lat="45.63753" lon="4.62263">
        <ele>625</ele>
        <time>2021-02-15T21:25:34Z</time>
      </trkpt>
      <trkpt lat="45.63737" lon="4.62286">
        <ele>622</ele>
        <time>2021-02-15T21:26:04Z</time>
      </trkpt>
      <trkpt lat="45.63719" lon="4.6233">
        <ele>620</ele>
        <time>2021-02-15T21:26:52Z</time>
      </trkpt>
      <trkpt lat="45.63715" lon="4.62351">
        <ele>618</ele>
        <time>2021-02-15T21:27:12Z</time>
      </trkpt>
      <trkpt lat="45.63718" lon="4.62372">
        <ele>617</ele>
        <time>2021-02-15T21:27:32Z</time>
      </trkpt>
      <trkpt lat="45.63739" lon="4.62415">
        <ele>620</ele>
        <time>2021-02-15T21:28:21Z</time>
      </trkpt>
      <trkpt lat="45.63737" lon="4.62458">
        <ele>620</ele>
        <time>2021-02-15T21:29:01Z</time>
      </trkpt>
      <trkpt lat="45.63726" lon="4.62478">
        <ele>617</ele>
        <time>2021-02-15T21:29:25Z</time>
      </trkpt>
      <trkpt lat="45.63704" lon="4.625">
        <ele>613</ele>
        <time>2021-02-15T21:30:01Z</time>
      </trkpt>
      <trkpt lat="45.63689" lon="4.62508">
        <ele>611</ele>
        <time>2021-02-15T21:30:22Z</time>
      </trkpt>
      <trkpt lat="45.63683" lon="4.62547">
        <ele>613</ele>
        <time>2021-02-15T21:30:59Z</time>
      </trkpt>
      <trkpt lat="45.63677" lon="4.62559">
        <ele>612</ele>
        <time>2021-02-15T21:31:13Z</time>
      </trkpt>
      <trkpt lat="45.63651" lon="4.62632">
        <ele>610</ele>
        <time>2021-02-15T21:32:29Z</time>
      </trkpt>
      <trkpt lat="45.63623" lon="4.62705">
        <ele>602</ele>
        <time>2021-02-15T21:33:47Z</time>
      </trkpt>
      <trkpt lat="45.63607" lon="4.62727">
        <ele>598</ele>
        <time>2021-02-15T21:34:17Z</time>
      </trkpt>
      <trkpt lat="45.63584" lon="4.62768">
        <ele>591</ele>
        <time>2021-02-15T21:35:06Z</time>
      </trkpt>
      <trkpt lat="45.63575" lon="4.62799">
        <ele>588</ele>
        <time>2021-02-15T21:35:37Z</time>
      </trkpt>
      <trkpt lat="45.63574" lon="4.62837">
        <ele>586</ele>
        <time>2021-02-15T21:36:13Z</time>
      </trkpt>
      <trkpt lat="45.6357" lon="4.62865">
        <ele>583</ele>
        <time>2021-02-15T21:36:39Z</time>
      </trkpt>
      <trkpt lat="45.63558" lon="4.62898">
        <ele>578</ele>
        <time>2021-02-15T21:37:14Z</time>
      </trkpt>
      <trkpt lat="45.63544" lon="4.62926">
        <ele>574</ele>
        <time>2021-02-15T21:37:46Z</time>
      </trkpt>
      <trkpt lat="45.63538" lon="4.62941">
        <ele>571</ele>
        <time>2021-02-15T21:38:02Z</time>
      </trkpt>
      <trkpt lat="45.63525" lon="4.6299">
        <ele>565</ele>
        <time>2021-02-15T21:38:51Z</time>
      </trkpt>
      <trkpt lat="45.63516" lon="4.63015">
        <ele>562</ele>
        <time>2021-02-15T21:39:17Z</time>
      </trkpt>
      <trkpt lat="45.63537" lon="4.63033">
        <ele>560</ele>
        <time>2021-02-15T21:39:50Z</time>
      </trkpt>
      <trkpt lat="45.63589" lon="4.6305">
        <ele>558</ele>
        <time>2021-02-15T21:41:01Z</time>
      </trkpt>
      <trkpt lat="45.636" lon="4.63065">
        <ele>557</ele>
        <time>2021-02-15T21:41:21Z</time>
      </trkpt>
      <trkpt lat="45.63602" lon="4.63093">
        <ele>553</ele>
        <time>2021-02-15T21:41:48Z</time>
      </trkpt>
      <trkpt lat="45.63599" lon="4.63127">
        <ele>550</ele>
        <time>2021-02-15T21:42:20Z</time>
      </trkpt>
      <trkpt lat="45.63591" lon="4.63155">
        <ele>545</ele>
        <time>2021-02-15T21:42:48Z</time>
      </trkpt>
      <trkpt lat="45.63586" lon="4.63188">
        <ele>541</ele>
        <time>2021-02-15T21:43:19Z</time>
      </trkpt>
      <trkpt lat="45.63575" lon="4.63227">
        <ele>536</ele>
        <time>2021-02-15T21:43:59Z</time>
      </trkpt>
      <trkpt lat="45.63551" lon="4.63296">
        <ele>527</ele>
        <time>2021-02-15T21:45:11Z</time>
      </trkpt>
      <trkpt lat="45.63547" lon="4.63335">
        <ele>524</ele>
        <time>2021-02-15T21:45:47Z</time>
      </trkpt>
      <trkpt lat="45.63543" lon="4.63348">
        <ele>523</ele>
        <time>2021-02-15T21:46:01Z</time>
      </trkpt>
      <trkpt lat="45.63516" lon="4.63418">
        <ele>515</ele>
        <time>2021-02-15T21:47:15Z</time>
      </trkpt>
      <trkpt lat="45.63506" lon="4.63478">
        <ele>514</ele>
        <time>2021-02-15T21:48:13Z</time>
      </trkpt>
      <trkpt lat="45.63477" lon="4.63618">
        <ele>509</ele>
        <time>2021-02-15T21:50:29Z</time>
      </trkpt>
      <trkpt lat="45.63476" lon="4.63672">
        <ele>506</ele>
        <time>2021-02-15T21:51:19Z</time>
      </trkpt>
      <trkpt lat="45.63463" lon="4.6369">
        <ele>501</ele>
        <time>2021-02-15T21:51:44Z</time>
      </trkpt>
      <trkpt lat="45.63459" lon="4.63714">
        <ele>497</ele>
        <time>2021-02-15T21:52:07Z</time>
      </trkpt>
      <trkpt lat="45.63458" lon="4.63745">
        <ele>494</ele>
        <time>2021-02-15T21:52:36Z</time>
      </trkpt>
      <trkpt lat="45.63452" lon="4.63781">
        <ele>491</ele>
        <time>2021-02-15T21:53:10Z</time>
      </trkpt>
      <trkpt lat="45.63443" lon="4.63796">
        <ele>488</ele>
        <time>2021-02-15T21:53:29Z</time>
      </trkpt>
      <trkpt lat="45.63423" lon="4.63819">
        <ele>483</ele>
        <time>2021-02-15T21:54:03Z</time>
      </trkpt>
      <trkpt lat="45.63412" lon="4.63819">
        <ele>481</ele>
        <time>2021-02-15T21:54:17Z</time>
      </trkpt>
      <trkpt lat="45.6341" lon="4.63822">
        <ele>481</ele>
        <time>2021-02-15T21:54:21Z</time>
      </trkpt>
      <trkpt lat="45.63405" lon="4.63823">
        <ele>480</ele>
        <time>2021-02-15T21:54:28Z</time>
      </trkpt>
      <trkpt lat="45.63401" lon="4.63821">
        <ele>480</ele>
        <time>2021-02-15T21:54:34Z</time>
      </trkpt>
      <trkpt lat="45.63399" lon="4.63827">
        <ele>479</ele>
        <time>2021-02-15T21:54:40Z</time>
      </trkpt>
      <trkpt lat="45.63358" lon="4.63881">
        <ele>475</ele>
        <time>2021-02-15T21:55:54Z</time>
      </trkpt>
      <trkpt lat="45.63321" lon="4.63908">
        <ele>473</ele>
        <time>2021-02-15T21:56:50Z</time>
      </trkpt>
      <trkpt lat="45.63317" lon="4.63898">
        <ele>472</ele>
        <time>2021-02-15T21:57:00Z</time>
      </trkpt>
    </trkseg>
  </trk>
</gpx>